createdAt,value
2018-04-01T00:02:32.205Z,58.31
2018-04-01T00:05:34.301Z,58.22
2018-04-01T00:08:36.413Z,59.03
2018-04-01T00:11:38.522Z,58.33
2018-04-01T00:14:40.661Z,58.54
2018-04-01T00:17:42.756Z,58.24
2018-04-01T00:20:44.873Z,58.56
2018-04-01T00:23:47.026Z,58.66
2018-04-01T00:26:49.117Z,59.17
2018-04-01T00:29:51.251Z,59.08
2018-04-01T00:32:53.532Z,60.04
2018-04-01T00:35:55.634Z,59.31
2018-04-01T00:38:58.766Z,59.84
2018-04-01T00:42:01.910Z,60.33
2018-04-01T00:45:04.094Z,60.97
2018-04-01T00:48:06.181Z,61.85
2018-04-01T00:51:08.295Z,60.93
2018-04-01T00:54:10.513Z,62.08
2018-04-01T00:57:12.618Z,62.31
2018-04-01T01:00:14.771Z,61.29
2018-04-01T01:03:17.337Z,60.83
2018-04-01T01:06:19.459Z,60.80
2018-04-01T01:09:21.609Z,60.88
2018-04-01T01:12:23.748Z,61.11
2018-04-01T01:15:25.855Z,60.68
2018-04-01T01:18:27.954Z,60.83
2018-04-01T01:21:30.061Z,60.61
2018-04-01T01:24:32.201Z,60.82
2018-04-01T01:27:34.317Z,60.75
2018-04-01T01:30:36.446Z,60.75
2018-04-01T01:33:38.567Z,61.29
2018-04-01T01:36:40.817Z,61.72
2018-04-01T01:39:42.970Z,61.59
2018-04-01T01:42:45.453Z,61.58
2018-04-01T01:45:47.575Z,61.98
2018-04-01T01:48:49.685Z,62.64
2018-04-01T01:51:51.957Z,61.98
2018-04-01T01:54:54.454Z,62.79
2018-04-01T01:57:56.566Z,62.92
2018-04-01T02:00:58.683Z,63.58
2018-04-01T02:04:00.853Z,64.02
2018-04-01T02:07:02.949Z,64.90
2018-04-01T02:10:05.059Z,65.65
2018-04-01T02:13:07.162Z,66.11
2018-04-01T02:16:09.300Z,67.43
2018-04-01T02:19:11.418Z,69.06
2018-04-01T02:22:13.520Z,70.28
2018-04-01T02:25:15.647Z,70.36
2018-04-01T02:28:17.762Z,70.88
2018-04-01T02:31:19.907Z,71.55
2018-04-01T02:34:22.002Z,72.87
2018-04-01T02:37:24.176Z,73.79
2018-04-01T02:40:26.297Z,74.34
2018-04-01T02:43:28.407Z,74.37
2018-04-01T02:46:30.507Z,75.50
2018-04-01T02:49:32.626Z,75.49
2018-04-01T02:52:34.722Z,75.34
2018-04-01T02:55:36.918Z,75.80
2018-04-01T02:58:39.024Z,76.99
2018-04-01T03:01:41.131Z,76.92
2018-04-01T03:04:43.257Z,77.02
2018-04-01T03:07:45.370Z,76.44
2018-04-01T03:10:47.483Z,76.47
2018-04-01T03:13:49.678Z,76.05
2018-04-01T03:16:51.846Z,75.58
2018-04-01T03:19:53.953Z,75.98
2018-04-01T03:22:56.093Z,76.09
2018-04-01T03:25:58.215Z,75.61
2018-04-01T03:29:00.309Z,76.23
2018-04-01T03:32:02.413Z,75.92
2018-04-01T03:35:04.542Z,75.57
2018-04-01T03:38:06.677Z,75.66
2018-04-01T03:41:08.813Z,75.67
2018-04-01T03:44:10.903Z,75.56
2018-04-01T03:47:13.034Z,75.60
2018-04-01T03:50:15.143Z,75.24
2018-04-01T03:53:17.253Z,75.27
2018-04-01T03:56:19.371Z,75.56
2018-04-01T03:59:21.490Z,75.17
2018-04-01T04:02:23.584Z,75.42
2018-04-01T04:05:25.701Z,75.74
2018-04-01T04:08:27.832Z,76.10
2018-04-01T04:11:29.929Z,75.24
2018-04-01T04:14:32.054Z,75.50
2018-04-01T04:17:34.292Z,75.61
2018-04-01T04:20:36.372Z,75.69
2018-04-01T04:23:38.518Z,76.00
2018-04-01T04:26:40.602Z,75.79
2018-04-01T04:29:42.734Z,75.45
2018-04-01T04:32:44.840Z,75.47
2018-04-01T04:35:46.961Z,75.50
2018-04-01T04:38:49.128Z,75.96
2018-04-01T04:41:51.290Z,75.98
2018-04-01T04:44:53.377Z,76.36
2018-04-01T04:47:55.543Z,76.19
2018-04-01T04:50:57.647Z,76.04
2018-04-01T04:53:59.793Z,75.69
2018-04-01T04:57:01.893Z,76.01
2018-04-01T05:00:04.004Z,75.76
2018-04-01T05:03:06.110Z,75.45
2018-04-01T05:06:08.232Z,75.35
2018-04-01T05:09:10.348Z,75.01
2018-04-01T05:12:12.514Z,74.64
2018-04-01T05:15:14.646Z,73.74
2018-04-01T05:18:16.877Z,73.28
2018-04-01T05:21:18.998Z,73.33
2018-04-01T05:24:21.174Z,73.08
2018-04-01T05:27:23.418Z,72.90
2018-04-01T05:30:25.558Z,73.30
2018-04-01T05:33:27.691Z,73.41
2018-04-01T05:36:29.780Z,73.94
2018-04-01T05:39:31.885Z,74.33
2018-04-01T05:42:34.009Z,74.48
2018-04-01T05:45:36.447Z,74.97
2018-04-01T05:48:38.633Z,74.39
2018-04-01T05:51:40.776Z,74.31
2018-04-01T05:54:42.901Z,73.44
2018-04-01T05:57:45.013Z,73.38
2018-04-01T06:00:47.112Z,73.49
2018-04-01T06:03:49.227Z,73.54
2018-04-01T06:06:51.385Z,73.20
2018-04-01T06:09:53.453Z,72.65
2018-04-01T06:12:55.596Z,72.50
2018-04-01T06:15:57.751Z,72.30
2018-04-01T06:18:59.896Z,72.51
2018-04-01T06:22:02.030Z,71.98
2018-04-01T06:25:04.154Z,71.39
2018-04-01T06:28:06.261Z,71.59
2018-04-01T06:31:08.380Z,71.02
2018-04-01T06:34:10.495Z,71.30
2018-04-01T06:37:12.648Z,71.49
2018-04-01T06:40:14.763Z,71.66
2018-04-01T06:43:16.862Z,72.05
2018-04-01T06:46:18.977Z,72.00
2018-04-01T06:49:21.124Z,72.26
2018-04-01T06:52:23.210Z,71.73
2018-04-01T06:55:25.320Z,71.56
2018-04-01T06:58:27.631Z,71.37
2018-04-01T07:01:30.076Z,71.38
2018-04-01T07:04:32.193Z,71.69
2018-04-01T07:07:34.715Z,71.47
2018-04-01T07:10:37.775Z,71.85
2018-04-01T07:13:39.860Z,72.29
2018-04-01T07:16:41.976Z,72.26
2018-04-01T07:19:44.082Z,73.01
2018-04-01T07:22:46.263Z,72.92
2018-04-01T07:25:48.366Z,73.47
2018-04-01T07:28:50.541Z,73.70
2018-04-01T07:31:52.695Z,73.78
2018-04-01T07:34:54.823Z,74.39
2018-04-01T07:37:56.946Z,74.84
2018-04-01T07:40:59.066Z,74.10
2018-04-01T07:44:01.188Z,73.70
2018-04-01T07:47:03.297Z,73.89
2018-04-01T07:50:05.413Z,73.92
2018-04-01T07:53:07.641Z,73.47
2018-04-01T07:56:09.740Z,73.43
2018-04-01T07:59:11.852Z,73.32
2018-04-01T08:02:13.992Z,72.60
2018-04-01T08:05:16.182Z,72.86
2018-04-01T08:08:18.293Z,72.53
2018-04-01T08:11:20.394Z,72.08
2018-04-01T08:14:22.566Z,71.67
2018-04-01T08:17:24.697Z,71.28
2018-04-01T08:20:26.805Z,71.41
2018-04-01T08:23:28.916Z,70.84
2018-04-01T08:26:31.134Z,70.66
2018-04-01T08:29:33.235Z,70.79
2018-04-01T08:32:35.348Z,70.71
2018-04-01T08:35:37.461Z,71.25
2018-04-01T08:38:39.556Z,71.67
2018-04-01T08:41:41.669Z,69.74
2018-04-01T08:44:43.911Z,70.14
2018-04-01T08:47:46.005Z,69.81
2018-04-01T08:50:48.114Z,71.02
2018-04-01T08:53:50.215Z,71.72
2018-04-01T08:56:52.325Z,72.72
2018-04-01T08:59:54.444Z,73.79
2018-04-01T09:02:56.610Z,73.83
2018-04-01T09:05:59.005Z,74.23
2018-04-01T09:09:01.120Z,74.31
2018-04-01T09:12:03.388Z,73.84
2018-04-01T09:15:05.654Z,72.94
2018-04-01T09:18:07.860Z,72.59
2018-04-01T09:21:09.954Z,72.07
2018-04-01T09:24:12.078Z,71.34
2018-04-01T09:27:14.231Z,71.30
2018-04-01T09:30:16.506Z,71.14
2018-04-01T09:33:18.674Z,71.13
2018-04-01T09:36:20.843Z,70.67
2018-04-01T09:39:22.951Z,70.65
2018-04-01T09:42:25.094Z,70.12
2018-04-01T09:45:27.199Z,70.44
2018-04-01T09:48:29.325Z,68.65
2018-04-01T09:51:31.455Z,68.29
2018-04-01T09:54:33.572Z,66.31
2018-04-01T09:57:35.736Z,66.89
2018-04-01T10:00:41.406Z,67.59
2018-04-01T10:03:44.551Z,65.69
2018-04-01T10:06:47.880Z,64.27
2018-04-01T10:09:52.435Z,62.98
2018-04-01T10:12:55.656Z,61.65
2018-04-01T10:15:58.874Z,60.74
2018-04-01T10:19:02.369Z,60.42
2018-04-01T10:22:06.363Z,60.71
2018-04-01T10:25:09.661Z,60.91
2018-04-01T10:28:12.944Z,61.20
2018-04-01T10:31:16.291Z,61.43
2018-04-01T10:34:19.545Z,61.96
2018-04-01T10:37:23.160Z,63.42
2018-04-01T10:40:26.744Z,62.86
2018-04-01T10:43:30.076Z,62.45
2018-04-01T10:46:33.353Z,62.18
2018-04-01T10:49:36.560Z,60.90
2018-04-01T10:52:39.849Z,59.13
2018-04-01T10:55:41.967Z,58.76
2018-04-01T10:58:44.056Z,58.30
2018-04-01T11:01:46.176Z,57.07
2018-04-01T11:04:48.290Z,58.66
2018-04-01T11:07:50.423Z,58.57
2018-04-01T11:10:52.572Z,58.65
2018-04-01T11:13:54.728Z,58.87
2018-04-01T11:16:56.960Z,58.44
2018-04-01T11:19:59.059Z,56.03
2018-04-01T11:23:01.173Z,54.42
2018-04-01T11:26:03.313Z,53.59
2018-04-01T11:29:05.421Z,53.78
2018-04-01T11:32:07.554Z,54.60
2018-04-01T11:35:09.687Z,54.34
2018-04-01T11:38:11.794Z,54.52
2018-04-01T11:41:13.957Z,55.16
2018-04-01T11:44:16.070Z,55.94
2018-04-01T11:47:18.198Z,54.39
2018-04-01T11:50:20.314Z,53.64
2018-04-01T11:53:22.463Z,54.38
2018-04-01T11:56:24.612Z,56.12
2018-04-01T11:59:26.740Z,62.54
2018-04-01T12:02:28.858Z,67.71
2018-04-01T12:05:30.961Z,69.70
2018-04-01T12:08:33.109Z,69.73
2018-04-01T12:11:35.206Z,66.99
2018-04-01T12:14:37.334Z,67.33
2018-04-01T12:17:39.442Z,66.96
2018-04-01T12:20:41.583Z,64.29
2018-04-01T12:23:43.734Z,63.61
2018-04-01T12:26:45.862Z,63.91
2018-04-01T12:29:47.994Z,61.78
2018-04-01T12:32:50.106Z,62.40
2018-04-01T12:35:52.334Z,63.21
2018-04-01T12:38:54.499Z,61.36
2018-04-01T12:41:56.619Z,61.66
2018-04-01T12:44:58.766Z,63.28
2018-04-01T12:48:00.901Z,64.89
2018-04-01T12:51:03.031Z,64.20
2018-04-01T12:54:05.140Z,65.23
2018-04-01T12:57:07.247Z,65.63
2018-04-01T13:00:09.396Z,66.99
2018-04-01T13:03:11.599Z,68.21
2018-04-01T13:06:13.735Z,68.28
2018-04-01T13:09:15.855Z,68.13
2018-04-01T13:12:18.053Z,66.50
2018-04-01T13:15:20.166Z,67.60
2018-04-01T13:18:22.371Z,65.17
2018-04-01T13:21:24.513Z,64.28
2018-04-01T13:24:26.709Z,63.36
2018-04-01T13:27:28.838Z,62.83
2018-04-01T13:30:30.978Z,62.28
2018-04-01T13:33:33.131Z,60.90
2018-04-01T13:36:35.300Z,62.90
2018-04-01T13:39:37.433Z,61.72
2018-04-01T13:42:39.627Z,61.17
2018-04-01T13:45:41.783Z,60.75
2018-04-01T13:48:43.922Z,60.87
2018-04-01T13:51:46.034Z,60.95
2018-04-01T13:54:48.182Z,61.18
2018-04-01T13:57:50.310Z,59.47
2018-04-01T14:00:52.482Z,57.63
2018-04-01T14:03:54.672Z,59.44
2018-04-01T14:06:56.802Z,59.89
2018-04-01T14:09:58.998Z,59.05
2018-04-01T14:13:01.197Z,59.23
2018-04-01T14:16:03.369Z,65.28
2018-04-01T14:19:05.480Z,62.36
2018-04-01T14:22:07.604Z,62.55
2018-04-01T14:25:09.731Z,62.85
2018-04-01T14:28:11.891Z,63.26
2018-04-01T14:31:14.060Z,64.50
2018-04-01T14:34:16.225Z,65.31
2018-04-01T14:37:18.451Z,65.78
2018-04-01T14:40:20.591Z,66.01
2018-04-01T14:43:22.771Z,64.48
2018-04-01T14:46:24.857Z,64.07
2018-04-01T14:49:26.977Z,64.10
2018-04-01T14:52:29.110Z,62.51
2018-04-01T14:55:31.254Z,60.75
2018-04-01T14:58:33.374Z,59.18
2018-04-01T15:01:35.495Z,59.03
2018-04-01T15:04:37.579Z,58.49
2018-04-01T15:07:39.720Z,57.66
2018-04-01T15:10:41.943Z,58.71
2018-04-01T15:13:44.106Z,58.65
2018-04-01T15:16:46.210Z,58.13
2018-04-01T15:19:48.309Z,57.89
2018-04-01T15:22:50.429Z,57.11
2018-04-01T15:25:52.537Z,56.77
2018-04-01T15:28:54.661Z,55.75
2018-04-01T15:31:56.746Z,54.23
2018-04-01T15:34:58.950Z,52.77
2018-04-01T15:38:01.097Z,53.17
2018-04-01T15:41:03.226Z,53.51
2018-04-01T15:44:05.359Z,54.31
2018-04-01T15:47:07.498Z,54.88
2018-04-01T15:50:09.622Z,55.05
2018-04-01T15:53:11.798Z,54.88
2018-04-01T15:56:14.135Z,53.10
2018-04-01T15:59:16.345Z,51.36
2018-04-01T16:02:18.512Z,52.11
2018-04-01T16:05:20.737Z,53.17
2018-04-01T16:08:23.225Z,53.76
2018-04-01T16:11:25.327Z,54.12
2018-04-01T16:14:27.425Z,54.27
2018-04-01T16:17:29.539Z,54.88
2018-04-01T16:20:31.658Z,53.90
2018-04-01T16:23:33.766Z,54.17
2018-04-01T16:26:35.886Z,54.50
2018-04-01T16:29:37.993Z,54.33
2018-04-01T16:32:40.149Z,58.15
2018-04-01T16:35:42.244Z,60.92
2018-04-01T16:38:44.493Z,61.38
2018-04-01T16:41:46.606Z,61.91
2018-04-01T16:44:48.852Z,63.02
2018-04-01T16:47:50.942Z,65.03
2018-04-01T16:50:53.196Z,66.43
2018-04-01T16:53:55.290Z,66.04
2018-04-01T16:56:57.429Z,65.13
2018-04-01T16:59:59.542Z,66.86
2018-04-01T17:03:01.672Z,68.86
2018-04-01T17:06:03.775Z,70.38
2018-04-01T17:09:05.895Z,70.88
2018-04-01T17:12:07.998Z,71.23
2018-04-01T17:15:10.159Z,70.10
2018-04-01T17:18:12.269Z,70.11
2018-04-01T17:21:14.381Z,70.08
2018-04-01T17:24:16.502Z,70.15
2018-04-01T17:27:18.659Z,70.45
2018-04-01T17:30:20.785Z,69.87
2018-04-01T17:33:22.895Z,69.91
2018-04-01T17:36:24.994Z,69.87
2018-04-01T17:39:27.095Z,70.77
2018-04-01T17:42:29.199Z,70.85
2018-04-01T17:45:31.305Z,70.96
2018-04-01T17:48:33.416Z,71.30
2018-04-01T17:51:35.590Z,71.69
2018-04-01T17:54:37.725Z,71.56
2018-04-01T17:57:39.837Z,72.24
2018-04-01T18:00:41.943Z,72.46
2018-04-01T18:03:44.071Z,71.93
2018-04-01T18:06:46.149Z,72.07
2018-04-01T18:09:48.308Z,72.11
2018-04-01T18:12:50.410Z,72.07
2018-04-01T18:15:52.697Z,72.20
2018-04-01T18:18:54.796Z,72.78
2018-04-01T18:21:56.921Z,72.83
2018-04-01T18:24:59.009Z,73.33
2018-04-01T18:28:01.160Z,73.52
2018-04-01T18:31:03.281Z,72.84
2018-04-01T18:34:05.404Z,72.46
2018-04-01T18:37:07.539Z,71.78
2018-04-01T18:40:09.650Z,71.74
2018-04-01T18:43:11.759Z,71.17
2018-04-01T18:46:13.943Z,70.60
2018-04-01T18:49:16.071Z,70.22
2018-04-01T18:52:19.247Z,69.60
2018-04-01T18:55:21.361Z,70.28
2018-04-01T18:58:23.491Z,70.69
2018-04-01T19:01:25.643Z,71.08
2018-04-01T19:04:27.850Z,71.70
2018-04-01T19:07:30.002Z,72.36
2018-04-01T19:10:32.154Z,72.85
2018-04-01T19:13:34.273Z,73.15
2018-04-01T19:16:45.319Z,72.72
2018-04-01T19:19:48.654Z,72.93
2018-04-01T19:22:51.922Z,72.78
2018-04-01T19:25:55.205Z,73.56
2018-04-01T19:28:58.530Z,73.84
2018-04-01T19:32:01.741Z,74.30
2018-04-01T19:35:05.114Z,74.78
2018-04-01T19:38:08.429Z,75.15
2018-04-01T19:41:11.694Z,75.52
2018-04-01T19:44:14.992Z,75.76
2018-04-01T19:47:18.322Z,75.34
2018-04-01T19:50:21.682Z,75.38
2018-04-01T19:53:24.946Z,75.70
2018-04-01T19:56:28.178Z,76.11
2018-04-01T19:59:31.490Z,76.04
2018-04-01T20:02:34.869Z,75.78
2018-04-01T20:05:38.029Z,75.90
2018-04-01T20:08:41.322Z,76.21
2018-04-01T20:11:44.620Z,76.15
2018-04-01T20:14:47.911Z,76.93
2018-04-01T20:17:51.182Z,76.55
2018-04-01T20:20:54.448Z,76.87
2018-04-01T20:23:57.848Z,76.53
2018-04-01T20:27:01.058Z,76.13
2018-04-01T20:30:04.676Z,76.82
2018-04-01T20:33:08.139Z,76.72
2018-04-01T20:36:11.644Z,77.64
2018-04-01T20:39:15.152Z,77.65
2018-04-01T20:42:18.431Z,78.20
2018-04-01T20:45:22.408Z,78.48
2018-04-01T20:48:26.322Z,78.91
2018-04-01T20:51:29.876Z,78.84
2018-04-01T20:54:33.386Z,79.44
2018-04-01T20:57:36.889Z,79.66
2018-04-01T21:00:40.498Z,79.89
2018-04-01T21:03:44.106Z,79.94
2018-04-01T21:06:47.398Z,80.23
2018-04-01T21:09:50.727Z,80.28
2018-04-01T21:12:54.247Z,80.04
2018-04-01T21:15:57.525Z,79.93
2018-04-01T21:19:00.810Z,80.35
2018-04-01T21:22:04.089Z,80.45
2018-04-01T21:25:07.502Z,80.20
2018-04-01T21:28:10.741Z,79.98
2018-04-01T21:31:13.922Z,80.08
2018-04-01T21:34:17.189Z,79.96
2018-04-01T21:37:20.430Z,80.53
2018-04-01T21:40:23.704Z,79.83
2018-04-01T21:43:26.923Z,79.62
2018-04-01T21:46:30.184Z,79.77
2018-04-01T21:49:33.491Z,79.92
2018-04-01T21:52:36.781Z,80.04
2018-04-01T21:55:40.064Z,79.69
2018-04-01T21:58:43.785Z,80.13
2018-04-01T22:01:47.046Z,79.39
2018-04-01T22:04:50.236Z,80.02
2018-04-01T22:07:53.681Z,79.97
2018-04-01T22:10:56.958Z,80.10
2018-04-01T22:14:00.306Z,80.32
2018-04-01T22:17:03.479Z,80.30
2018-04-01T22:20:07.003Z,80.29
2018-04-01T22:23:13.184Z,80.20
2018-04-01T22:26:16.467Z,80.10
2018-04-01T22:29:19.633Z,80.24
2018-04-01T22:32:23.064Z,80.30
2018-04-01T22:35:26.254Z,80.31
2018-04-01T22:38:29.624Z,79.90
2018-04-01T22:41:32.839Z,79.93
2018-04-01T22:44:36.127Z,79.78
2018-04-01T22:47:39.365Z,79.89
2018-04-01T22:50:42.638Z,80.11
2018-04-01T22:53:45.904Z,79.74
2018-04-01T22:56:49.194Z,79.46
2018-04-01T22:59:52.496Z,79.75
2018-04-01T23:02:55.708Z,79.77
2018-04-01T23:06:05.451Z,79.34
2018-04-01T23:09:10.318Z,79.47
2018-04-01T23:12:13.652Z,79.68
2018-04-01T23:15:16.976Z,80.05
2018-04-01T23:18:23.916Z,80.14
2018-04-01T23:21:30.285Z,80.09
2018-04-01T23:24:39.899Z,80.45
2018-04-01T23:27:59.349Z,80.17
2018-04-01T23:31:03.591Z,80.14
2018-04-01T23:34:16.705Z,79.78
2018-04-01T23:37:20.378Z,80.04
2018-04-01T23:40:29.523Z,80.24
2018-04-01T23:43:32.830Z,80.21
2018-04-01T23:46:36.118Z,79.94
2018-04-01T23:49:39.344Z,79.68
2018-04-01T23:52:46.308Z,79.53
2018-04-01T23:55:49.508Z,79.31
2018-04-01T23:58:58.616Z,79.42
